createdAt,value
2019-02-19T00:01:15.084Z,14.40
2019-02-19T00:03:45.617Z,13.37
2019-02-19T00:06:16.076Z,14.60
2019-02-19T00:08:46.565Z,14.87
2019-02-19T00:11:16.849Z,14.10
2019-02-19T00:13:47.374Z,14.43
2019-02-19T00:16:17.995Z,13.47
2019-02-19T00:18:48.607Z,14.43
2019-02-19T00:21:18.980Z,13.30
2019-02-19T00:23:49.417Z,13.87
2019-02-19T00:26:19.795Z,11.37
2019-02-19T00:28:50.348Z,14.07
2019-02-19T00:31:20.800Z,15.43
2019-02-19T00:33:51.390Z,11.77
2019-02-19T00:36:21.938Z,15.97
2019-02-19T00:38:52.408Z,11.13
2019-02-19T00:41:22.867Z,13.47
2019-02-19T00:43:53.557Z,11.17
2019-02-19T00:46:24.150Z,11.57
2019-02-19T00:48:55.649Z,12.60
2019-02-19T00:51:26.011Z,13.30
2019-02-19T00:53:56.409Z,12.40
2019-02-19T00:56:26.679Z,13.87
2019-02-19T00:58:59.479Z,14.60
2019-02-19T01:01:29.130Z,11.70
2019-02-19T01:03:59.555Z,12.77
2019-02-19T01:06:30.017Z,12.83
2019-02-19T01:09:00.423Z,12.80
2019-02-19T01:11:30.831Z,12.60
2019-02-19T01:14:01.263Z,12.07
2019-02-19T01:16:33.135Z,11.40
2019-02-19T01:19:03.733Z,12.20
2019-02-19T01:21:34.283Z,13.57
2019-02-19T01:24:04.612Z,12.47
2019-02-19T01:26:35.081Z,16.80
2019-02-19T01:29:05.704Z,11.53
2019-02-19T01:31:36.447Z,10.13
2019-02-19T01:34:07.072Z,9.73
2019-02-19T01:36:37.535Z,13.30
2019-02-19T01:39:08.217Z,11.77
2019-02-19T01:41:38.531Z,11.70
2019-02-19T01:44:08.967Z,11.40
2019-02-19T01:46:39.536Z,11.97
2019-02-19T01:49:10.291Z,12.33
2019-02-19T01:51:40.719Z,9.83
2019-02-19T01:54:11.196Z,11.47
2019-02-19T01:56:41.513Z,14.53
2019-02-19T01:59:11.907Z,10.23
2019-02-19T02:01:42.640Z,12.40
2019-02-19T02:04:13.080Z,10.03
2019-02-19T02:06:43.793Z,13.97
2019-02-19T02:09:14.313Z,9.90
2019-02-19T02:11:44.880Z,11.33
2019-02-19T02:14:15.472Z,11.00
2019-02-19T02:16:46.005Z,12.57
2019-02-19T02:19:16.473Z,12.83
2019-02-19T02:21:47.081Z,11.60
2019-02-19T02:24:17.798Z,9.50
2019-02-19T02:26:48.438Z,11.87
2019-02-19T02:29:19.153Z,9.03
2019-02-19T02:31:50.140Z,11.37
2019-02-19T02:34:20.689Z,12.37
2019-02-19T02:36:51.599Z,11.00
2019-02-19T02:39:22.033Z,12.70
2019-02-19T02:41:52.759Z,12.13
2019-02-19T02:44:23.167Z,11.90
2019-02-19T02:46:53.642Z,10.03
2019-02-19T02:49:24.038Z,14.30
2019-02-19T02:51:54.578Z,10.50
2019-02-19T02:54:25.075Z,12.90
2019-02-19T02:56:57.294Z,14.60
2019-02-19T02:59:27.679Z,11.87
2019-02-19T03:01:58.437Z,10.83
2019-02-19T03:04:30.625Z,12.70
2019-02-19T03:07:21.337Z,14.10
2019-02-19T03:09:51.710Z,12.63
2019-02-19T03:12:22.317Z,13.27
2019-02-19T03:14:52.677Z,15.00
2019-02-19T03:17:23.378Z,16.10
2019-02-19T03:19:53.744Z,11.20
2019-02-19T03:22:24.349Z,12.60
2019-02-19T03:24:55.003Z,12.20
2019-02-19T03:27:25.442Z,13.00
2019-02-19T03:29:55.903Z,12.47
2019-02-19T03:32:26.506Z,10.97
2019-02-19T03:34:57.051Z,14.90
2019-02-19T03:37:27.708Z,10.97
2019-02-19T03:39:58.406Z,15.77
2019-02-19T03:42:28.732Z,14.63
2019-02-19T03:44:59.199Z,13.33
2019-02-19T03:47:29.707Z,13.70
2019-02-19T03:50:00.244Z,13.77
2019-02-19T03:52:31.086Z,15.53
2019-02-19T03:55:01.782Z,16.00
2019-02-19T03:57:32.962Z,13.70
2019-02-19T04:00:03.435Z,12.73
2019-02-19T04:02:34.113Z,17.90
2019-02-19T04:05:04.808Z,16.03
2019-02-19T04:07:35.307Z,18.43
2019-02-19T04:10:06.152Z,19.70
2019-02-19T04:12:36.839Z,20.77
2019-02-19T04:15:07.700Z,16.17
2019-02-19T04:17:38.747Z,18.07
2019-02-19T04:20:09.350Z,15.23
2019-02-19T04:22:39.942Z,16.90
2019-02-19T04:25:10.402Z,16.70
2019-02-19T04:27:42.664Z,20.57
2019-02-19T04:30:13.191Z,18.03
2019-02-19T04:32:43.804Z,20.87
2019-02-19T04:35:14.143Z,21.17
2019-02-19T04:37:44.470Z,21.37
2019-02-19T04:40:15.085Z,18.57
2019-02-19T04:42:45.687Z,19.83
2019-02-19T04:45:16.194Z,22.27
2019-02-19T04:47:46.976Z,22.97
2019-02-19T04:50:19.789Z,22.90
2019-02-19T04:52:50.797Z,25.10
2019-02-19T04:55:21.330Z,23.93
2019-02-19T04:57:51.855Z,27.03
2019-02-19T05:00:22.409Z,25.67
2019-02-19T05:02:52.837Z,28.47
2019-02-19T05:05:23.083Z,28.40
2019-02-19T05:07:53.493Z,25.77
2019-02-19T05:10:24.032Z,30.23
2019-02-19T05:12:54.416Z,28.20
2019-02-19T05:15:26.614Z,32.83
2019-02-19T05:18:00.374Z,30.23
2019-02-19T05:20:31.020Z,31.20
2019-02-19T05:23:01.726Z,33.77
2019-02-19T05:25:32.536Z,31.67
2019-02-19T05:28:04.019Z,35.27
2019-02-19T05:30:34.691Z,33.63
2019-02-19T05:33:05.438Z,34.03
2019-02-19T05:35:35.988Z,38.17
2019-02-19T05:38:06.504Z,35.17
2019-02-19T05:40:36.826Z,34.60
2019-02-19T05:43:07.480Z,33.30
2019-02-19T05:45:37.994Z,32.43
2019-02-19T05:48:08.538Z,33.30
2019-02-19T05:50:39.143Z,34.20
2019-02-19T05:53:09.917Z,37.90
2019-02-19T05:55:41.435Z,39.23
2019-02-19T05:58:12.210Z,34.83
2019-02-19T06:00:42.937Z,32.57
2019-02-19T06:03:13.625Z,39.10
2019-02-19T06:05:44.407Z,34.40
2019-02-19T06:08:14.662Z,35.60
2019-02-19T06:10:44.951Z,35.00
2019-02-19T06:13:15.214Z,34.57
2019-02-19T06:15:46.701Z,36.03
2019-02-19T06:18:17.083Z,33.23
2019-02-19T06:20:47.298Z,32.33
2019-02-19T06:23:17.489Z,32.27
2019-02-19T06:25:47.722Z,34.17
2019-02-19T06:28:17.959Z,33.60
2019-02-19T06:30:48.178Z,33.47
2019-02-19T06:33:18.618Z,35.53
2019-02-19T06:35:49.552Z,37.40
2019-02-19T06:38:20.292Z,35.40
2019-02-19T06:40:50.774Z,34.87
2019-02-19T06:43:21.370Z,34.73
2019-02-19T06:45:52.346Z,33.37
2019-02-19T06:48:24.554Z,36.27
2019-02-19T06:50:55.390Z,35.47
2019-02-19T06:53:28.852Z,44.87
2019-02-19T06:55:59.780Z,38.60
2019-02-19T06:58:31.345Z,40.67
2019-02-19T07:01:02.231Z,43.93
2019-02-19T07:03:39.979Z,36.67
2019-02-19T07:06:11.065Z,35.93
2019-02-19T07:08:42.380Z,37.10
2019-02-19T07:11:13.660Z,34.97
2019-02-19T07:13:44.431Z,39.60
2019-02-19T07:16:15.797Z,40.20
2019-02-19T07:18:46.887Z,38.83
2019-02-19T07:21:18.218Z,39.00
2019-02-19T07:23:49.741Z,35.53
2019-02-19T07:26:23.581Z,34.30
2019-02-19T07:28:55.220Z,37.07
2019-02-19T07:31:26.860Z,37.47
2019-02-19T07:33:58.152Z,33.77
2019-02-19T07:36:29.127Z,32.00
2019-02-19T07:39:00.083Z,31.70
2019-02-19T07:41:31.162Z,33.17
2019-02-19T07:44:02.345Z,30.73
2019-02-19T07:46:33.379Z,29.43
2019-02-19T07:49:04.906Z,26.97
2019-02-19T07:51:36.253Z,25.93
2019-02-19T07:54:07.455Z,23.60
2019-02-19T07:56:38.530Z,27.17
2019-02-19T07:59:10.459Z,21.33
2019-02-19T08:01:42.501Z,20.07
2019-02-19T08:04:15.187Z,25.13
2019-02-19T08:06:46.275Z,24.17
2019-02-19T08:09:17.483Z,23.90
2019-02-19T08:11:48.689Z,24.23
2019-02-19T08:14:19.729Z,20.83
2019-02-19T08:16:50.772Z,19.63
2019-02-19T08:19:22.069Z,20.33
2019-02-19T08:21:53.657Z,21.07
2019-02-19T08:24:24.921Z,18.10
2019-02-19T08:26:57.661Z,20.30
2019-02-19T08:29:28.881Z,16.83
2019-02-19T08:32:00.141Z,20.07
2019-02-19T08:34:31.339Z,16.87
2019-02-19T08:37:02.493Z,18.27
2019-02-19T08:39:33.670Z,20.57
2019-02-19T08:42:06.131Z,20.60
2019-02-19T08:44:37.750Z,18.27
2019-02-19T08:47:10.513Z,22.80
2019-02-19T08:49:41.816Z,19.83
2019-02-19T08:52:12.718Z,20.50
2019-02-19T08:54:43.801Z,22.33
2019-02-19T08:57:15.140Z,20.40
2019-02-19T08:59:46.594Z,22.27
2019-02-19T09:02:17.644Z,19.80
2019-02-19T09:04:48.626Z,19.57
2019-02-19T09:07:20.144Z,22.10
2019-02-19T09:09:51.147Z,24.87
2019-02-19T09:12:22.234Z,20.67
2019-02-19T09:14:53.546Z,22.83
2019-02-19T09:17:24.647Z,24.30
2019-02-19T09:19:55.755Z,23.73
2019-02-19T09:22:26.553Z,20.67
2019-02-19T09:24:57.363Z,24.70
2019-02-19T09:27:28.509Z,22.20
2019-02-19T09:29:59.909Z,24.80
2019-02-19T09:32:31.037Z,23.97
2019-02-19T09:35:04.659Z,22.97
2019-02-19T09:37:37.428Z,25.37
2019-02-19T09:40:08.708Z,25.20
2019-02-19T09:42:43.026Z,21.83
2019-02-19T09:45:14.045Z,25.40
2019-02-19T09:47:46.122Z,23.60
2019-02-19T09:50:17.239Z,22.40
2019-02-19T09:53:00.037Z,23.33
2019-02-19T09:55:29.128Z,21.20
2019-02-19T09:57:59.873Z,24.50
2019-02-19T10:00:30.567Z,22.30
2019-02-19T10:03:03.902Z,21.07
2019-02-19T10:05:34.823Z,20.63
2019-02-19T10:08:07.004Z,24.67
2019-02-19T10:10:39.620Z,29.73
2019-02-19T10:13:10.530Z,26.10
2019-02-19T10:15:41.856Z,19.77
2019-02-19T10:18:12.785Z,19.90
2019-02-19T10:20:43.602Z,20.17
2019-02-19T10:23:14.880Z,23.30
2019-02-19T10:25:46.075Z,19.27
2019-02-19T10:28:17.078Z,18.77
2019-02-19T10:30:47.829Z,20.50
2019-02-19T10:33:20.018Z,19.90
2019-02-19T10:35:51.016Z,20.53
2019-02-19T10:38:23.482Z,22.23
2019-02-19T10:40:54.602Z,21.70
2019-02-19T10:43:25.177Z,19.97
2019-02-19T10:45:56.178Z,26.20
2019-02-19T10:48:26.805Z,20.57
2019-02-19T10:50:57.213Z,20.67
2019-02-19T10:53:28.645Z,22.27
2019-02-19T10:55:59.386Z,22.57
2019-02-19T10:58:30.180Z,24.40
2019-02-19T11:01:01.201Z,20.10
2019-02-19T11:03:32.205Z,22.50
2019-02-19T11:06:03.436Z,20.60
2019-02-19T11:08:34.534Z,21.53
2019-02-19T11:11:05.057Z,21.10
2019-02-19T11:13:36.087Z,19.37
2019-02-19T11:16:06.761Z,20.27
2019-02-19T11:18:37.672Z,18.43
2019-02-19T11:21:18.998Z,18.97
2019-02-19T11:23:41.202Z,21.47
2019-02-19T11:26:12.047Z,17.90
2019-02-19T11:28:42.648Z,21.47
2019-02-19T11:31:13.509Z,20.57
2019-02-19T11:33:44.811Z,17.80
2019-02-19T11:36:16.024Z,16.23
2019-02-19T11:38:46.723Z,19.17
2019-02-19T11:41:17.360Z,16.30
2019-02-19T11:43:48.566Z,15.50
2019-02-19T11:46:20.711Z,18.47
2019-02-19T11:48:51.497Z,18.23
2019-02-19T11:51:23.501Z,15.07
2019-02-19T11:53:54.420Z,16.87
2019-02-19T11:56:25.055Z,15.13
2019-02-19T11:58:58.454Z,14.70
2019-02-19T12:01:33.088Z,13.23
2019-02-19T12:04:04.803Z,13.50
2019-02-19T12:06:35.375Z,15.20
2019-02-19T12:09:06.350Z,10.73
2019-02-19T12:11:37.050Z,12.70
2019-02-19T12:14:12.534Z,14.70
2019-02-19T12:16:43.584Z,14.03
2019-02-19T12:19:14.791Z,15.00
2019-02-19T12:21:48.938Z,12.33
2019-02-19T12:24:19.598Z,14.27
2019-02-19T12:26:50.656Z,18.83
2019-02-19T12:29:21.512Z,11.73
2019-02-19T12:31:52.084Z,11.83
2019-02-19T12:34:22.764Z,11.10
2019-02-19T12:36:53.504Z,9.00
2019-02-19T12:39:26.115Z,10.97
2019-02-19T12:41:57.898Z,11.20
2019-02-19T12:44:31.151Z,10.97
2019-02-19T12:47:01.768Z,15.40
2019-02-19T12:49:32.242Z,14.73
2019-02-19T12:52:02.696Z,11.03
2019-02-19T12:54:33.328Z,10.07
2019-02-19T12:57:03.909Z,11.23
2019-02-19T12:59:34.574Z,9.60
2019-02-19T13:02:05.246Z,10.47
2019-02-19T13:04:35.978Z,11.30
2019-02-19T13:07:06.554Z,13.53
2019-02-19T13:09:38.342Z,15.03
2019-02-19T13:12:11.112Z,13.93
2019-02-19T13:14:41.499Z,8.77
2019-02-19T13:17:11.976Z,15.03
2019-02-19T13:19:43.859Z,11.37
2019-02-19T13:22:14.267Z,8.27
2019-02-19T13:24:44.806Z,12.83
2019-02-19T13:27:15.262Z,11.13
2019-02-19T13:29:46.161Z,10.97
2019-02-19T13:32:19.984Z,9.67
2019-02-19T13:34:50.610Z,12.50
2019-02-19T13:37:21.311Z,8.60
2019-02-19T13:39:51.972Z,6.80
2019-02-19T13:42:22.613Z,11.33
2019-02-19T13:44:53.249Z,9.90
2019-02-19T13:47:23.862Z,6.67
2019-02-19T13:49:54.601Z,7.13
2019-02-19T13:52:36.210Z,7.37
2019-02-19T13:55:12.116Z,7.23
2019-02-19T13:57:42.916Z,8.27
2019-02-19T14:00:18.858Z,6.33
2019-02-19T14:02:49.378Z,10.00
2019-02-19T14:05:20.106Z,11.60
2019-02-19T14:07:51.597Z,8.90
2019-02-19T14:10:22.235Z,10.37
2019-02-19T14:12:52.873Z,6.77
2019-02-19T14:15:33.654Z,12.00
2019-02-19T14:18:05.211Z,6.47
2019-02-19T14:20:52.214Z,5.80
2019-02-19T14:23:51.433Z,7.63
2019-02-19T14:26:33.337Z,6.93
2019-02-19T14:29:21.799Z,7.00
2019-02-19T14:32:06.510Z,6.53
2019-02-19T14:35:11.443Z,11.03
2019-02-19T14:38:14.173Z,5.73
2019-02-19T14:41:21.777Z,6.60
2019-02-19T14:44:23.177Z,7.83
2019-02-19T14:47:18.771Z,5.50
2019-02-19T14:50:05.827Z,4.70
2019-02-19T14:53:06.895Z,5.50
2019-02-19T14:56:14.177Z,5.90
2019-02-19T14:59:18.909Z,8.23
2019-02-19T15:02:23.234Z,5.00
2019-02-19T15:05:12.962Z,5.47
2019-02-19T15:08:03.880Z,7.27
2019-02-19T15:10:49.983Z,7.50
2019-02-19T15:13:44.453Z,10.37
2019-02-19T15:16:29.661Z,9.43
2019-02-19T15:19:19.959Z,9.20
2019-02-19T15:22:12.271Z,10.13
2019-02-19T15:25:05.317Z,7.53
2019-02-19T15:27:46.369Z,8.97
2019-02-19T15:30:36.365Z,8.30
2019-02-19T15:33:26.391Z,8.53
2019-02-19T15:36:17.755Z,6.87
2019-02-19T15:39:08.901Z,7.47
2019-02-19T15:41:56.267Z,7.50
2019-02-19T15:44:57.963Z,8.60
2019-02-19T15:47:51.177Z,9.13
2019-02-19T15:50:41.299Z,7.10
2019-02-19T15:53:36.661Z,8.77
2019-02-19T15:56:45.011Z,5.87
2019-02-19T15:59:29.258Z,10.27
2019-02-19T16:02:17.293Z,8.73
2019-02-19T16:05:09.901Z,8.43
2019-02-19T16:07:48.053Z,8.60
2019-02-19T16:10:30.512Z,9.53
2019-02-19T16:13:19.791Z,5.40
2019-02-19T16:16:06.715Z,6.23
2019-02-19T16:18:47.449Z,7.27
2019-02-19T16:21:36.399Z,7.30
2019-02-19T16:24:34.872Z,9.20
2019-02-19T16:27:30.480Z,10.33
2019-02-19T16:30:26.400Z,10.27
2019-02-19T16:33:24.475Z,8.43
2019-02-19T16:36:09.807Z,9.77
2019-02-19T16:39:07.896Z,9.17
2019-02-19T16:41:48.732Z,12.63
2019-02-19T16:44:28.125Z,8.70
2019-02-19T16:47:12.930Z,12.70
2019-02-19T16:49:56.623Z,7.07
2019-02-19T16:52:47.873Z,8.37
2019-02-19T16:55:40.589Z,8.23
2019-02-19T16:58:38.716Z,8.40
2019-02-19T17:01:46.161Z,10.47
2019-02-19T17:04:33.438Z,12.17
2019-02-19T17:07:15.140Z,10.30
2019-02-19T17:10:07.139Z,11.27
2019-02-19T17:12:53.369Z,11.00
2019-02-19T17:15:45.833Z,10.50
2019-02-19T17:18:31.808Z,9.60
2019-02-19T17:21:25.138Z,11.10
2019-02-19T17:24:04.836Z,14.80
2019-02-19T17:26:52.548Z,13.00
2019-02-19T17:29:44.472Z,13.00
2019-02-19T17:32:37.261Z,14.17
2019-02-19T17:35:18.871Z,12.17
2019-02-19T17:38:14.700Z,9.87
2019-02-19T17:41:12.002Z,8.43
2019-02-19T17:43:58.137Z,9.70
2019-02-19T17:46:45.986Z,8.63
2019-02-19T17:49:41.627Z,8.03
2019-02-19T17:52:29.516Z,7.30
2019-02-19T17:55:18.789Z,4.10
2019-02-19T17:58:06.733Z,3.13
2019-02-19T18:00:56.037Z,3.80
2019-02-19T18:03:48.304Z,4.37
2019-02-19T18:06:37.638Z,5.70
2019-02-19T18:09:18.494Z,3.27
2019-02-19T18:11:57.617Z,3.93
2019-02-19T18:14:48.406Z,3.20
2019-02-19T18:17:56.350Z,5.73
2019-02-19T18:20:27.259Z,3.53
2019-02-19T18:22:57.869Z,4.10
2019-02-19T18:25:28.243Z,2.13
2019-02-19T18:27:58.569Z,4.83
2019-02-19T18:30:29.128Z,5.10
2019-02-19T18:32:59.718Z,3.57
2019-02-19T18:35:38.426Z,3.70
2019-02-19T18:38:08.874Z,4.77
2019-02-19T18:40:39.392Z,3.00
2019-02-19T18:43:09.684Z,7.83
2019-02-19T18:45:40.145Z,4.20
2019-02-19T18:48:10.524Z,4.57
2019-02-19T18:50:41.032Z,5.20
2019-02-19T18:53:11.556Z,6.07
2019-02-19T18:55:41.989Z,4.03
2019-02-19T18:58:12.463Z,6.77
2019-02-19T19:00:43.516Z,5.87
2019-02-19T19:03:13.836Z,7.07
2019-02-19T19:05:44.316Z,3.83
2019-02-19T19:08:14.673Z,8.67
2019-02-19T19:10:45.090Z,6.73
2019-02-19T19:13:15.862Z,6.97
2019-02-19T19:15:46.216Z,5.27
2019-02-19T19:18:19.094Z,5.23
2019-02-19T19:20:48.904Z,5.63
2019-02-19T19:23:19.434Z,5.23
2019-02-19T19:25:49.832Z,5.40
2019-02-19T19:28:23.314Z,6.33
2019-02-19T19:30:56.191Z,8.00
2019-02-19T19:33:28.034Z,6.70
2019-02-19T19:35:58.391Z,8.67
2019-02-19T19:38:28.718Z,4.30
2019-02-19T19:40:59.077Z,6.70
2019-02-19T19:43:29.574Z,7.23
2019-02-19T19:46:01.032Z,8.47
2019-02-19T19:48:31.352Z,8.17
2019-02-19T19:51:01.623Z,7.73
2019-02-19T19:53:31.961Z,7.70
2019-02-19T19:56:02.280Z,10.07
2019-02-19T19:58:32.610Z,10.27
2019-02-19T20:01:02.932Z,8.13
2019-02-19T20:03:33.273Z,9.23
2019-02-19T20:06:03.628Z,8.50
2019-02-19T20:08:33.981Z,11.07
2019-02-19T20:11:04.380Z,9.77
2019-02-19T20:13:37.031Z,7.23
2019-02-19T20:16:09.650Z,9.27
2019-02-19T20:18:42.234Z,7.03
2019-02-19T20:21:50.692Z,9.00
2019-02-19T20:24:23.795Z,8.13
2019-02-19T20:26:54.106Z,8.47
2019-02-19T20:29:24.522Z,7.13
2019-02-19T20:31:55.043Z,13.43
2019-02-19T20:34:25.571Z,14.27
2019-02-19T20:36:55.902Z,9.93
2019-02-19T20:39:26.198Z,12.97
2019-02-19T20:41:57.036Z,10.40
2019-02-19T20:44:27.394Z,14.90
2019-02-19T20:46:57.831Z,8.97
2019-02-19T20:49:33.389Z,15.53
2019-02-19T20:52:03.763Z,9.87
2019-02-19T20:54:34.064Z,9.23
2019-02-19T20:57:04.444Z,6.57
2019-02-19T20:59:34.694Z,13.63
2019-02-19T21:02:05.129Z,7.53
2019-02-19T21:04:35.534Z,10.83
2019-02-19T21:07:05.798Z,9.60
2019-02-19T21:09:43.491Z,9.70
2019-02-19T21:12:08.064Z,8.83
2019-02-19T21:14:38.447Z,10.67
2019-02-19T21:17:08.998Z,14.10
2019-02-19T21:19:39.281Z,10.90
2019-02-19T21:22:09.603Z,11.77
2019-02-19T21:24:39.825Z,12.80
2019-02-19T21:27:10.071Z,9.57
2019-02-19T21:29:40.386Z,12.00
2019-02-19T21:32:10.708Z,12.13
2019-02-19T21:34:41.004Z,10.27
2019-02-19T21:37:12.846Z,10.97
2019-02-19T21:39:43.122Z,14.03
2019-02-19T21:42:13.640Z,11.90
2019-02-19T21:44:43.979Z,11.27
2019-02-19T21:47:14.494Z,10.70
2019-02-19T21:49:46.298Z,10.57
2019-02-19T21:52:16.740Z,11.93
2019-02-19T21:54:47.579Z,13.80
2019-02-19T21:57:17.968Z,14.73
2019-02-19T21:59:48.274Z,14.93
2019-02-19T22:02:18.607Z,9.33
2019-02-19T22:04:48.990Z,12.13
2019-02-19T22:07:19.422Z,12.97
2019-02-19T22:09:49.914Z,11.40
2019-02-19T22:12:20.769Z,13.43
2019-02-19T22:14:51.131Z,11.53
2019-02-19T22:17:21.931Z,11.73
2019-02-19T22:20:02.674Z,8.37
2019-02-19T22:22:28.533Z,12.93
2019-02-19T22:24:58.841Z,11.17
2019-02-19T22:27:29.357Z,10.17
2019-02-19T22:29:59.772Z,10.63
2019-02-19T22:32:30.281Z,11.03
2019-02-19T22:35:00.705Z,11.67
2019-02-19T22:37:31.132Z,10.90
2019-02-19T22:40:01.440Z,13.67
2019-02-19T22:42:31.962Z,12.60
2019-02-19T22:45:02.362Z,10.33
2019-02-19T22:47:32.897Z,10.03
2019-02-19T22:50:03.207Z,11.40
2019-02-19T22:52:33.542Z,8.90
2019-02-19T22:55:16.491Z,11.23
2019-02-19T22:57:46.841Z,12.27
2019-02-19T23:00:37.513Z,11.20
2019-02-19T23:03:08.099Z,10.93
2019-02-19T23:05:39.315Z,10.97
2019-02-19T23:08:09.633Z,12.20
2019-02-19T23:10:39.891Z,8.53
2019-02-19T23:13:10.245Z,10.30
2019-02-19T23:15:40.607Z,11.73
2019-02-19T23:18:10.939Z,10.17
2019-02-19T23:20:41.261Z,10.17
2019-02-19T23:23:14.687Z,10.87
2019-02-19T23:25:45.133Z,7.53
2019-02-19T23:28:15.474Z,10.00
2019-02-19T23:30:45.721Z,8.83
2019-02-19T23:33:16.045Z,9.33
2019-02-19T23:35:50.431Z,9.03
2019-02-19T23:38:20.818Z,10.43
2019-02-19T23:40:52.651Z,9.37
2019-02-19T23:43:23.019Z,13.87
2019-02-19T23:45:53.405Z,11.30
2019-02-19T23:48:25.794Z,11.73
2019-02-19T23:50:56.419Z,10.33
2019-02-19T23:53:26.845Z,11.20
2019-02-19T23:55:57.267Z,13.80
2019-02-19T23:58:27.707Z,11.27
